createdAt,value
2023-01-07T00:01:32.212Z,36.33
2023-01-07T00:04:17.063Z,36.51
2023-01-07T00:07:01.769Z,36.60
2023-01-07T00:09:46.678Z,36.22
2023-01-07T00:12:31.470Z,36.32
2023-01-07T00:15:16.277Z,36.95
2023-01-07T00:18:00.993Z,37.47
2023-01-07T00:20:45.734Z,38.09
2023-01-07T00:23:30.450Z,37.55
2023-01-07T00:26:15.182Z,37.52
2023-01-07T00:29:00.113Z,37.06
2023-01-07T00:31:44.749Z,38.16
2023-01-07T00:34:29.649Z,37.50
2023-01-07T00:37:14.298Z,37.91
2023-01-07T00:39:59.175Z,38.10
2023-01-07T00:42:43.788Z,38.58
2023-01-07T00:45:28.564Z,38.23
2023-01-07T00:48:13.300Z,37.74
2023-01-07T00:50:57.986Z,38.00
2023-01-07T00:53:42.798Z,38.43
2023-01-07T00:56:27.610Z,38.02
2023-01-07T00:59:12.343Z,37.80
2023-01-07T01:01:57.120Z,37.83
2023-01-07T01:04:42.324Z,37.60
2023-01-07T01:07:27.031Z,37.49
2023-01-07T01:10:11.852Z,37.59
2023-01-07T01:12:56.645Z,37.24
2023-01-07T01:15:41.517Z,37.04
2023-01-07T01:18:26.381Z,37.01
2023-01-07T01:21:11.159Z,37.07
2023-01-07T01:23:55.917Z,37.15
2023-01-07T01:26:40.633Z,37.35
2023-01-07T01:29:25.358Z,36.87
2023-01-07T01:32:10.029Z,36.80
2023-01-07T01:34:54.902Z,36.59
2023-01-07T01:37:39.630Z,36.71
2023-01-07T01:40:24.513Z,36.61
2023-01-07T01:43:09.309Z,36.51
2023-01-07T01:45:54.147Z,35.82
2023-01-07T01:48:38.938Z,35.78
2023-01-07T01:51:23.679Z,36.19
2023-01-07T01:54:08.562Z,36.12
2023-01-07T01:56:53.260Z,36.11
2023-01-07T01:59:38.058Z,35.92
2023-01-07T02:02:22.666Z,35.85
2023-01-07T02:05:07.421Z,36.22
2023-01-07T02:07:52.104Z,36.05
2023-01-07T02:10:37.048Z,35.70
2023-01-07T02:13:21.838Z,36.78
2023-01-07T02:16:06.629Z,36.02
2023-01-07T02:18:51.452Z,36.25
2023-01-07T02:21:36.036Z,36.75
2023-01-07T02:24:20.895Z,36.86
2023-01-07T02:27:05.651Z,36.73
2023-01-07T02:29:50.403Z,36.34
2023-01-07T02:32:35.030Z,37.20
2023-01-07T02:35:19.952Z,37.34
2023-01-07T02:38:04.524Z,37.52
2023-01-07T02:40:49.295Z,36.83
2023-01-07T02:43:34.044Z,37.45
2023-01-07T02:46:18.665Z,37.54
2023-01-07T02:49:03.407Z,37.24
2023-01-07T02:51:47.997Z,37.06
2023-01-07T02:54:32.858Z,36.22
2023-01-07T02:57:17.542Z,36.34
2023-01-07T03:00:02.379Z,36.56
2023-01-07T03:02:47.016Z,35.85
2023-01-07T03:05:31.772Z,36.15
2023-01-07T03:08:16.406Z,35.86
2023-01-07T03:11:01.300Z,36.00
2023-01-07T03:13:45.951Z,36.30
2023-01-07T03:16:30.730Z,35.88
2023-01-07T03:19:15.653Z,35.84
2023-01-07T03:22:00.640Z,36.39
2023-01-07T03:24:45.456Z,35.98
2023-01-07T03:27:30.156Z,35.95
2023-01-07T03:30:14.852Z,35.76
2023-01-07T03:32:59.682Z,36.25
2023-01-07T03:35:44.461Z,35.99
2023-01-07T03:38:29.173Z,35.63
2023-01-07T03:41:14.088Z,35.43
2023-01-07T03:43:58.877Z,35.20
2023-01-07T03:46:43.726Z,35.22
2023-01-07T03:49:28.703Z,35.70
2023-01-07T03:52:13.337Z,35.19
2023-01-07T03:54:58.198Z,35.58
2023-01-07T03:57:42.853Z,35.54
2023-01-07T04:00:27.539Z,35.16
2023-01-07T04:03:12.266Z,35.23
2023-01-07T04:05:57.095Z,35.60
2023-01-07T04:08:41.728Z,36.14
2023-01-07T04:11:26.610Z,36.16
2023-01-07T04:14:11.448Z,35.52
2023-01-07T04:16:56.223Z,35.55
2023-01-07T04:19:41.029Z,36.21
2023-01-07T04:22:25.661Z,35.63
2023-01-07T04:25:11.097Z,35.80
2023-01-07T04:27:55.729Z,35.55
2023-01-07T04:30:40.646Z,35.96
2023-01-07T04:33:25.233Z,35.45
2023-01-07T04:36:09.993Z,35.68
2023-01-07T04:38:54.723Z,35.28
2023-01-07T04:41:39.430Z,36.01
2023-01-07T04:44:24.180Z,36.29
2023-01-07T04:47:08.958Z,36.84
2023-01-07T04:49:53.768Z,36.08
2023-01-07T04:52:38.478Z,35.84
2023-01-07T04:55:23.272Z,35.53
2023-01-07T04:58:07.918Z,35.86
2023-01-07T05:00:52.715Z,35.70
2023-01-07T05:03:37.456Z,35.55
2023-01-07T05:06:22.332Z,35.27
2023-01-07T05:09:06.930Z,35.39
2023-01-07T05:11:51.720Z,35.19
2023-01-07T05:14:36.402Z,34.75
2023-01-07T05:17:21.240Z,35.28
2023-01-07T05:20:06.075Z,35.20
2023-01-07T05:22:50.801Z,34.88
2023-01-07T05:25:35.586Z,36.36
2023-01-07T05:28:20.378Z,35.78
2023-01-07T05:31:05.382Z,34.92
2023-01-07T05:33:50.369Z,35.21
2023-01-07T05:36:35.192Z,35.16
2023-01-07T05:39:19.879Z,35.44
2023-01-07T05:42:04.690Z,36.19
2023-01-07T05:44:49.509Z,35.20
2023-01-07T05:47:34.426Z,34.83
2023-01-07T05:50:19.196Z,35.05
2023-01-07T05:53:04.053Z,35.05
2023-01-07T05:55:48.936Z,34.96
2023-01-07T05:58:33.659Z,34.63
2023-01-07T06:01:18.589Z,35.58
2023-01-07T06:04:03.782Z,35.89
2023-01-07T06:06:48.533Z,35.43
2023-01-07T06:09:33.275Z,35.62
2023-01-07T06:12:17.971Z,35.68
2023-01-07T06:15:02.755Z,35.49
2023-01-07T06:17:47.576Z,36.33
2023-01-07T06:20:32.487Z,35.79
2023-01-07T06:23:17.115Z,35.89
2023-01-07T06:26:01.935Z,36.30
2023-01-07T06:28:46.723Z,35.97
2023-01-07T06:31:31.485Z,35.93
2023-01-07T06:34:16.681Z,35.84
2023-01-07T06:37:01.522Z,35.93
2023-01-07T06:39:46.113Z,35.17
2023-01-07T06:42:30.996Z,35.31
2023-01-07T06:45:15.723Z,35.54
2023-01-07T06:48:00.365Z,34.83
2023-01-07T06:50:45.240Z,35.14
2023-01-07T06:53:30.208Z,34.84
2023-01-07T06:56:15.122Z,34.62
2023-01-07T06:58:59.820Z,34.32
2023-01-07T07:01:46.542Z,34.56
2023-01-07T07:04:31.447Z,35.48
2023-01-07T07:07:16.336Z,35.42
2023-01-07T07:10:01.073Z,36.17
2023-01-07T07:12:45.886Z,35.81
2023-01-07T07:15:30.746Z,35.66
2023-01-07T07:18:15.395Z,35.78
2023-01-07T07:21:00.142Z,35.82
2023-01-07T07:23:44.776Z,35.15
2023-01-07T07:26:29.683Z,34.94
2023-01-07T07:29:14.417Z,34.66
2023-01-07T07:31:59.230Z,35.52
2023-01-07T07:34:43.943Z,35.74
2023-01-07T07:37:28.627Z,35.23
2023-01-07T07:40:13.553Z,35.29
2023-01-07T07:43:10.324Z,34.74
2023-01-07T07:45:57.072Z,35.08
2023-01-07T07:48:41.863Z,35.17
2023-01-07T07:51:26.655Z,34.89
2023-01-07T07:54:11.341Z,35.85
2023-01-07T07:56:56.174Z,35.78
2023-01-07T07:59:40.775Z,35.69
2023-01-07T08:02:25.579Z,35.06
2023-01-07T08:05:10.380Z,34.56
2023-01-07T08:07:55.324Z,34.22
2023-01-07T08:10:40.109Z,34.43
2023-01-07T08:13:24.770Z,34.39
2023-01-07T08:16:09.751Z,34.76
2023-01-07T08:18:54.541Z,33.04
2023-01-07T08:21:39.347Z,33.94
2023-01-07T08:24:23.945Z,33.62
2023-01-07T08:27:08.800Z,33.71
2023-01-07T08:29:53.544Z,33.75
2023-01-07T08:32:38.364Z,34.15
2023-01-07T08:35:23.087Z,33.34
2023-01-07T08:38:07.914Z,32.88
2023-01-07T08:40:52.709Z,33.87
2023-01-07T08:43:37.446Z,32.48
2023-01-07T08:46:22.354Z,32.76
2023-01-07T08:49:07.046Z,32.35
2023-01-07T08:51:51.984Z,33.35
2023-01-07T08:54:36.696Z,32.51
2023-01-07T08:57:21.397Z,32.37
2023-01-07T09:00:06.125Z,33.36
2023-01-07T09:02:51.022Z,32.67
2023-01-07T09:05:36.073Z,32.97
2023-01-07T09:08:20.839Z,31.59
2023-01-07T09:11:05.638Z,30.39
2023-01-07T09:13:50.384Z,29.36
2023-01-07T09:16:35.079Z,30.83
2023-01-07T09:19:19.906Z,29.78
2023-01-07T09:22:04.685Z,30.27
2023-01-07T09:24:49.277Z,30.08
2023-01-07T09:27:33.985Z,29.99
2023-01-07T09:30:18.587Z,30.54
2023-01-07T09:33:03.352Z,29.04
2023-01-07T09:35:48.027Z,29.49
2023-01-07T09:38:32.785Z,29.63
2023-01-07T09:41:17.519Z,28.48
2023-01-07T09:44:02.366Z,28.56
2023-01-07T09:46:49.675Z,28.65
2023-01-07T09:49:34.334Z,28.75
2023-01-07T09:52:19.168Z,28.57
2023-01-07T09:55:03.796Z,28.48
2023-01-07T09:57:48.488Z,28.94
2023-01-07T10:00:33.234Z,28.74
2023-01-07T10:03:18.044Z,28.60
2023-01-07T10:06:02.864Z,27.50
2023-01-07T10:08:47.571Z,28.89
2023-01-07T10:11:32.389Z,27.83
2023-01-07T10:14:17.183Z,29.71
2023-01-07T10:17:02.053Z,30.31
2023-01-07T10:19:46.874Z,31.28
2023-01-07T10:22:31.618Z,29.81
2023-01-07T10:25:16.399Z,30.24
2023-01-07T10:28:01.101Z,29.86
2023-01-07T10:30:45.799Z,30.21
2023-01-07T10:33:30.575Z,31.23
2023-01-07T10:36:15.336Z,30.87
2023-01-07T10:39:00.051Z,30.49
2023-01-07T10:41:44.804Z,29.59
2023-01-07T10:44:29.585Z,30.01
2023-01-07T10:47:14.401Z,29.44
2023-01-07T10:49:58.981Z,29.88
2023-01-07T10:52:43.750Z,29.02
2023-01-07T10:55:28.328Z,28.68
2023-01-07T10:58:13.173Z,27.38
2023-01-07T11:00:57.946Z,28.09
2023-01-07T11:03:43.015Z,27.21
2023-01-07T11:06:27.743Z,27.19
2023-01-07T11:09:12.575Z,27.49
2023-01-07T11:11:57.413Z,28.02
2023-01-07T11:14:42.068Z,27.85
2023-01-07T11:17:26.930Z,28.02
2023-01-07T11:20:11.681Z,26.26
2023-01-07T11:22:56.326Z,26.31
2023-01-07T11:25:41.053Z,25.88
2023-01-07T11:28:25.787Z,26.55
2023-01-07T11:31:10.469Z,26.16
2023-01-07T11:34:02.902Z,26.66
2023-01-07T11:36:49.126Z,26.71
2023-01-07T11:39:33.867Z,26.57
2023-01-07T11:42:18.583Z,25.69
2023-01-07T11:45:03.462Z,25.75
2023-01-07T11:47:48.206Z,25.98
2023-01-07T11:50:33.105Z,26.36
2023-01-07T11:53:17.777Z,25.59
2023-01-07T11:56:02.632Z,25.59
2023-01-07T11:58:47.149Z,25.54
2023-01-07T12:01:31.969Z,25.88
2023-01-07T12:04:16.675Z,25.48
2023-01-07T12:07:01.404Z,25.77
2023-01-07T12:09:46.344Z,24.79
2023-01-07T12:12:31.005Z,24.85
2023-01-07T12:15:15.861Z,24.73
2023-01-07T12:18:00.551Z,25.08
2023-01-07T12:20:45.482Z,25.17
2023-01-07T12:23:30.236Z,25.06
2023-01-07T12:26:15.008Z,25.48
2023-01-07T12:28:59.686Z,25.15
2023-01-07T12:31:44.557Z,25.65
2023-01-07T12:34:29.923Z,26.85
2023-01-07T12:37:14.688Z,26.57
2023-01-07T12:39:59.513Z,27.21
2023-01-07T12:42:44.322Z,26.95
2023-01-07T12:45:29.144Z,26.74
2023-01-07T12:48:13.771Z,27.10
2023-01-07T12:50:58.588Z,27.32
2023-01-07T12:53:43.272Z,27.13
2023-01-07T12:56:28.093Z,26.43
2023-01-07T12:59:46.231Z,26.72
2023-01-07T13:02:17.654Z,27.46
2023-01-07T13:05:02.914Z,26.40
2023-01-07T13:07:48.062Z,24.29
2023-01-07T13:10:32.856Z,24.30
2023-01-07T13:13:17.665Z,24.78
2023-01-07T13:16:02.412Z,26.26
2023-01-07T13:18:47.235Z,26.64
2023-01-07T13:21:31.903Z,26.54
2023-01-07T13:24:19.173Z,26.97
2023-01-07T13:27:04.307Z,26.49
2023-01-07T13:29:49.091Z,23.74
2023-01-07T13:32:33.833Z,22.80
2023-01-07T13:35:18.656Z,24.08
2023-01-07T13:38:03.492Z,24.18
2023-01-07T13:40:48.185Z,22.53
2023-01-07T13:43:33.004Z,24.05
2023-01-07T13:46:17.739Z,24.17
2023-01-07T13:49:03.083Z,23.27
2023-01-07T13:51:47.764Z,23.94
2023-01-07T13:54:32.645Z,24.96
2023-01-07T13:57:17.423Z,25.86
2023-01-07T14:00:02.202Z,25.97
2023-01-07T14:02:47.238Z,25.90
2023-01-07T14:05:31.932Z,26.45
2023-01-07T14:08:16.808Z,26.57
2023-01-07T14:11:01.449Z,25.91
2023-01-07T14:13:46.351Z,26.68
2023-01-07T14:16:30.989Z,27.31
2023-01-07T14:19:15.757Z,27.40
2023-01-07T14:22:00.504Z,27.83
2023-01-07T14:24:45.250Z,27.21
2023-01-07T14:27:29.995Z,27.56
2023-01-07T14:30:16.573Z,26.95
2023-01-07T14:33:01.509Z,28.12
2023-01-07T14:35:46.282Z,29.25
2023-01-07T14:38:31.028Z,27.98
2023-01-07T14:41:15.874Z,28.63
2023-01-07T14:44:00.667Z,29.54
2023-01-07T14:46:45.486Z,28.65
2023-01-07T14:49:30.225Z,29.59
2023-01-07T14:52:14.942Z,29.19
2023-01-07T14:54:59.817Z,29.43
2023-01-07T14:57:44.527Z,29.57
2023-01-07T15:00:29.197Z,30.22
2023-01-07T15:03:14.147Z,31.16
2023-01-07T15:05:58.841Z,31.43
2023-01-07T15:08:43.670Z,31.65
2023-01-07T15:11:28.414Z,31.14
2023-01-07T15:14:13.227Z,30.64
2023-01-07T15:16:58.080Z,31.29
2023-01-07T15:19:42.813Z,31.07
2023-01-07T15:22:27.762Z,30.97
2023-01-07T15:25:12.538Z,31.29
2023-01-07T15:27:57.390Z,30.54
2023-01-07T15:30:42.133Z,31.22
2023-01-07T15:33:26.965Z,31.47
2023-01-07T15:36:11.599Z,31.02
2023-01-07T15:38:56.367Z,30.85
2023-01-07T15:41:41.113Z,31.38
2023-01-07T15:44:28.389Z,30.93
2023-01-07T15:47:13.813Z,31.58
2023-01-07T15:49:58.534Z,31.62
2023-01-07T15:52:43.486Z,30.86
2023-01-07T15:55:28.286Z,31.13
2023-01-07T15:58:13.179Z,31.21
2023-01-07T16:00:58.056Z,30.78
2023-01-07T16:03:43.610Z,31.03
2023-01-07T16:06:28.949Z,31.13
2023-01-07T16:09:13.754Z,31.02
2023-01-07T16:11:58.713Z,31.48
2023-01-07T16:14:43.548Z,31.21
2023-01-07T16:17:28.521Z,31.06
2023-01-07T16:20:13.385Z,32.15
2023-01-07T16:22:58.661Z,31.75
2023-01-07T16:25:43.462Z,31.52
2023-01-07T16:28:28.174Z,31.70
2023-01-07T16:31:13.103Z,31.97
2023-01-07T16:33:57.739Z,31.52
2023-01-07T16:36:42.521Z,32.21
2023-01-07T16:39:27.188Z,32.08
2023-01-07T16:42:12.137Z,31.88
2023-01-07T16:44:56.941Z,31.78
2023-01-07T16:47:41.680Z,32.07
2023-01-07T16:50:26.399Z,32.21
2023-01-07T16:53:11.160Z,32.29
2023-01-07T16:55:55.934Z,31.98
2023-01-07T16:58:40.761Z,32.81
2023-01-07T17:01:26.846Z,32.54
2023-01-07T17:04:12.132Z,32.34
2023-01-07T17:06:56.878Z,32.20
2023-01-07T17:09:41.612Z,32.20
2023-01-07T17:12:26.584Z,32.35
2023-01-07T17:15:11.245Z,32.93
2023-01-07T17:17:56.063Z,32.51
2023-01-07T17:20:40.880Z,32.89
2023-01-07T17:23:25.595Z,32.71
2023-01-07T17:26:10.435Z,32.50
2023-01-07T17:28:55.215Z,32.72
2023-01-07T17:31:40.182Z,32.23
2023-01-07T17:34:25.292Z,32.51
2023-01-07T17:37:10.113Z,32.68
2023-01-07T17:39:54.802Z,32.47
2023-01-07T17:42:39.713Z,33.05
2023-01-07T17:45:24.383Z,33.10
2023-01-07T17:48:09.281Z,33.30
2023-01-07T17:50:54.279Z,32.88
2023-01-07T17:53:38.935Z,33.11
2023-01-07T17:56:23.725Z,32.97
2023-01-07T17:59:08.522Z,33.50
2023-01-07T18:01:53.466Z,33.65
2023-01-07T18:04:38.528Z,33.55
2023-01-07T18:07:23.225Z,34.00
2023-01-07T18:10:07.904Z,33.85
2023-01-07T18:12:52.744Z,33.90
2023-01-07T18:15:37.576Z,33.44
2023-01-07T18:18:22.383Z,33.44
2023-01-07T18:21:07.206Z,33.58
2023-01-07T18:23:51.972Z,32.95
2023-01-07T18:26:36.877Z,32.74
2023-01-07T18:29:21.634Z,32.63
2023-01-07T18:32:06.498Z,32.85
2023-01-07T18:34:51.299Z,32.75
2023-01-07T18:37:36.061Z,32.97
2023-01-07T18:40:20.806Z,33.36
2023-01-07T18:43:05.694Z,33.43
2023-01-07T18:45:50.678Z,33.47
2023-01-07T18:48:35.688Z,33.45
2023-01-07T18:51:20.710Z,34.03
2023-01-07T18:54:05.479Z,34.64
2023-01-07T18:56:50.285Z,34.83
2023-01-07T18:59:35.047Z,34.46
2023-01-07T19:02:19.851Z,34.26
2023-01-07T19:05:04.624Z,34.17
2023-01-07T19:07:49.447Z,34.21
2023-01-07T19:10:34.242Z,34.30
2023-01-07T19:13:19.172Z,34.28
2023-01-07T19:16:04.169Z,33.96
2023-01-07T19:18:48.818Z,34.42
2023-01-07T19:21:33.497Z,35.10
2023-01-07T19:24:18.120Z,34.96
2023-01-07T19:27:02.994Z,35.43
2023-01-07T19:29:47.796Z,35.41
2023-01-07T19:32:32.771Z,35.15
2023-01-07T19:35:17.444Z,34.77
2023-01-07T19:38:02.308Z,35.22
2023-01-07T19:40:47.148Z,35.02
2023-01-07T19:43:31.831Z,35.10
2023-01-07T19:46:16.776Z,34.33
2023-01-07T19:49:01.941Z,34.52
2023-01-07T19:51:46.684Z,34.82
2023-01-07T19:54:31.349Z,34.32
2023-01-07T19:57:16.291Z,34.52
2023-01-07T20:00:00.961Z,34.48
2023-01-07T20:02:45.653Z,34.46
2023-01-07T20:05:30.475Z,34.51
2023-01-07T20:08:15.406Z,34.42
2023-01-07T20:11:00.217Z,34.69
2023-01-07T20:13:45.104Z,34.70
2023-01-07T20:16:31.114Z,34.79
2023-01-07T20:19:21.516Z,35.02
2023-01-07T20:22:06.343Z,35.14
2023-01-07T20:24:51.181Z,35.20
2023-01-07T20:27:35.941Z,35.29
2023-01-07T20:30:20.646Z,34.88
2023-01-07T20:33:05.399Z,34.94
2023-01-07T20:35:50.373Z,35.04
2023-01-07T20:38:34.988Z,35.25
2023-01-07T20:41:19.669Z,35.20
2023-01-07T20:44:04.485Z,35.46
2023-01-07T20:46:49.273Z,35.53
2023-01-07T20:49:34.248Z,35.21
2023-01-07T20:52:18.868Z,35.08
2023-01-07T20:55:03.615Z,35.42
2023-01-07T20:57:48.430Z,35.76
2023-01-07T21:00:33.163Z,35.77
2023-01-07T21:03:17.919Z,35.70
2023-01-07T21:06:03.914Z,35.74
2023-01-07T21:08:49.078Z,36.13
2023-01-07T21:11:33.766Z,36.25
2023-01-07T21:14:18.702Z,36.37
2023-01-07T21:17:03.480Z,36.51
2023-01-07T21:19:48.254Z,36.28
2023-01-07T21:22:32.913Z,36.10
2023-01-07T21:25:17.901Z,36.82
2023-01-07T21:28:03.549Z,37.10
2023-01-07T21:30:48.374Z,36.91
2023-01-07T21:33:33.097Z,37.32
2023-01-07T21:36:17.835Z,37.02
2023-01-07T21:39:02.731Z,36.73
2023-01-07T21:41:47.357Z,36.77
2023-01-07T21:44:32.172Z,36.74
2023-01-07T21:47:16.798Z,36.81
2023-01-07T21:50:01.630Z,37.48
2023-01-07T21:52:46.426Z,37.27
2023-01-07T21:55:39.286Z,36.92
2023-01-07T21:58:29.800Z,36.89
2023-01-07T22:01:18.054Z,36.54
2023-01-07T22:04:03.444Z,36.48
2023-01-07T22:06:48.549Z,36.78
2023-01-07T22:09:33.473Z,36.76
2023-01-07T22:12:18.096Z,36.26
2023-01-07T22:15:02.997Z,36.37
2023-01-07T22:17:47.770Z,36.35
2023-01-07T22:20:33.318Z,36.45
2023-01-07T22:23:18.209Z,36.53
2023-01-07T22:29:10.771Z,36.97
2023-01-07T22:31:55.738Z,37.08
2023-01-07T22:34:40.442Z,36.83
2023-01-07T22:37:25.194Z,36.74
2023-01-07T22:40:10.051Z,36.77
2023-01-07T22:42:54.691Z,37.03
2023-01-07T22:45:39.495Z,37.04
2023-01-07T22:48:25.850Z,35.96
2023-01-07T22:51:10.994Z,37.07
2023-01-07T22:53:55.729Z,37.36
2023-01-07T22:56:40.530Z,37.03
2023-01-07T22:59:25.202Z,36.92
2023-01-07T23:02:10.064Z,37.08
2023-01-07T23:04:54.819Z,37.00
2023-01-07T23:07:39.616Z,37.32
2023-01-07T23:10:24.372Z,37.33
2023-01-07T23:13:09.224Z,36.62
2023-01-07T23:15:54.085Z,36.63
2023-01-07T23:18:38.915Z,37.13
2023-01-07T23:21:23.549Z,36.80
2023-01-07T23:24:08.242Z,37.46
2023-01-07T23:26:53.037Z,36.81
2023-01-07T23:29:37.846Z,37.46
2023-01-07T23:32:22.709Z,37.52
2023-01-07T23:35:07.346Z,37.92
2023-01-07T23:37:52.039Z,38.17
2023-01-07T23:40:36.779Z,37.61
2023-01-07T23:43:21.628Z,38.12
2023-01-07T23:46:06.454Z,38.27
2023-01-07T23:48:51.486Z,38.02
2023-01-07T23:51:36.393Z,37.88
2023-01-07T23:54:20.984Z,37.68
2023-01-07T23:57:05.697Z,38.44
2023-01-07T23:59:50.381Z,38.45
